sensor_id;sensor_type;location;lat;lon;timestamp;P1;durP1;ratioP1;P2;durP2;ratioP2
7573;SDS011;3828;48.922;9.116;2023-04-06T00:00:00;1.50;;;1.50;;
7573;SDS011;3828;48.922;9.116;2023-04-06T00:02:27;1.43;;;1.43;;
7573;SDS011;3828;48.922;9.116;2023-04-06T00:04:54;1.30;;;1.30;;
7573;SDS011;3828;48.922;9.116;2023-04-06T00:07:22;1.50;;;1.50;;
7573;SDS011;3828;48.922;9.116;2023-04-06T00:09:49;1.30;;;1.30;;
7573;SDS011;3828;48.922;9.116;2023-04-06T00:12:15;1.70;;;1.70;;
7573;SDS011;3828;48.922;9.116;2023-04-06T00:14:42;1.57;;;1.57;;
7573;SDS011;3828;48.922;9.116;2023-04-06T00:17:09;1.50;;;1.50;;
7573;SDS011;3828;48.922;9.116;2023-04-06T00:19:36;1.70;;;1.70;;
7573;SDS011;3828;48.922;9.116;2023-04-06T00:22:04;1.73;;;1.73;;
7573;SDS011;3828;48.922;9.116;2023-04-06T00:24:34;1.50;;;1.50;;
7573;SDS011;3828;48.922;9.116;2023-04-06T00:27:00;1.53;;;1.53;;
7573;SDS011;3828;48.922;9.116;2023-04-06T00:29:27;1.40;;;1.40;;
7573;SDS011;3828;48.922;9.116;2023-04-06T00:31:54;1.13;;;1.13;;
7573;SDS011;3828;48.922;9.116;2023-04-06T00:34:21;1.30;;;1.30;;
7573;SDS011;3828;48.922;9.116;2023-04-06T00:36:48;1.53;;;1.53;;
7573;SDS011;3828;48.922;9.116;2023-04-06T00:39:15;1.43;;;1.43;;
7573;SDS011;3828;48.922;9.116;2023-04-06T00:41:45;1.70;;;1.70;;
7573;SDS011;3828;48.922;9.116;2023-04-06T00:44:15;1.67;;;1.67;;
7573;SDS011;3828;48.922;9.116;2023-04-06T00:46:42;1.33;;;1.33;;
7573;SDS011;3828;48.922;9.116;2023-04-06T00:49:10;1.40;;;1.40;;
7573;SDS011;3828;48.922;9.116;2023-04-06T00:51:37;1.37;;;1.37;;
7573;SDS011;3828;48.922;9.116;2023-04-06T00:54:03;2.00;;;2.00;;
7573;SDS011;3828;48.922;9.116;2023-04-06T00:56:31;1.43;;;1.43;;
7573;SDS011;3828;48.922;9.116;2023-04-06T00:58:59;1.50;;;1.50;;
7573;SDS011;3828;48.922;9.116;2023-04-06T01:01:26;1.50;;;1.50;;
7573;SDS011;3828;48.922;9.116;2023-04-06T01:03:53;1.40;;;1.40;;
7573;SDS011;3828;48.922;9.116;2023-04-06T01:06:20;1.40;;;1.40;;
7573;SDS011;3828;48.922;9.116;2023-04-06T01:08:47;1.30;;;1.30;;
7573;SDS011;3828;48.922;9.116;2023-04-06T01:11:14;1.60;;;1.60;;
7573;SDS011;3828;48.922;9.116;2023-04-06T01:13:41;1.60;;;1.60;;
7573;SDS011;3828;48.922;9.116;2023-04-06T01:16:11;1.63;;;1.63;;
7573;SDS011;3828;48.922;9.116;2023-04-06T01:18:38;1.70;;;1.70;;
7573;SDS011;3828;48.922;9.116;2023-04-06T01:21:05;1.50;;;1.50;;
7573;SDS011;3828;48.922;9.116;2023-04-06T01:23:35;1.40;;;1.40;;
7573;SDS011;3828;48.922;9.116;2023-04-06T01:26:01;1.43;;;1.43;;
7573;SDS011;3828;48.922;9.116;2023-04-06T01:28:28;1.50;;;1.50;;
7573;SDS011;3828;48.922;9.116;2023-04-06T01:30:55;1.63;;;1.63;;
7573;SDS011;3828;48.922;9.116;2023-04-06T01:33:22;1.60;;;1.60;;
7573;SDS011;3828;48.922;9.116;2023-04-06T01:35:49;1.53;;;1.53;;
7573;SDS011;3828;48.922;9.116;2023-04-06T01:38:16;1.57;;;1.57;;
7573;SDS011;3828;48.922;9.116;2023-04-06T01:40:44;1.60;;;1.60;;
7573;SDS011;3828;48.922;9.116;2023-04-06T01:43:11;1.57;;;1.57;;
7573;SDS011;3828;48.922;9.116;2023-04-06T01:45:37;1.60;;;1.60;;
7573;SDS011;3828;48.922;9.116;2023-04-06T01:48:05;1.40;;;1.40;;
7573;SDS011;3828;48.922;9.116;2023-04-06T01:50:33;1.80;;;1.80;;
7573;SDS011;3828;48.922;9.116;2023-04-06T01:53:00;1.60;;;1.60;;
7573;SDS011;3828;48.922;9.116;2023-04-06T01:55:27;1.80;;;1.80;;
7573;SDS011;3828;48.922;9.116;2023-04-06T01:57:55;1.70;;;1.70;;
7573;SDS011;3828;48.922;9.116;2023-04-06T02:00:22;1.60;;;1.60;;
7573;SDS011;3828;48.922;9.116;2023-04-06T02:02:49;1.90;;;1.90;;
7573;SDS011;3828;48.922;9.116;2023-04-06T02:05:16;1.50;;;1.50;;
7573;SDS011;3828;48.922;9.116;2023-04-06T02:07:43;1.60;;;1.60;;
7573;SDS011;3828;48.922;9.116;2023-04-06T02:10:11;1.60;;;1.60;;
7573;SDS011;3828;48.922;9.116;2023-04-06T02:12:38;1.57;;;1.57;;
7573;SDS011;3828;48.922;9.116;2023-04-06T02:15:07;1.60;;;1.60;;
7573;SDS011;3828;48.922;9.116;2023-04-06T02:17:34;1.30;;;1.30;;
7573;SDS011;3828;48.922;9.116;2023-04-06T02:20:01;1.60;;;1.60;;
7573;SDS011;3828;48.922;9.116;2023-04-06T02:22:28;1.60;;;1.60;;
7573;SDS011;3828;48.922;9.116;2023-04-06T02:24:55;1.60;;;1.60;;
7573;SDS011;3828;48.922;9.116;2023-04-06T02:27:21;1.70;;;1.70;;
7573;SDS011;3828;48.922;9.116;2023-04-06T02:29:48;1.70;;;1.70;;
7573;SDS011;3828;48.922;9.116;2023-04-06T02:32:17;1.50;;;1.50;;
7573;SDS011;3828;48.922;9.116;2023-04-06T02:34:43;1.90;;;1.90;;
7573;SDS011;3828;48.922;9.116;2023-04-06T02:37:10;1.67;;;1.67;;
7573;SDS011;3828;48.922;9.116;2023-04-06T02:39:37;1.60;;;1.60;;
7573;SDS011;3828;48.922;9.116;2023-04-06T02:42:04;1.70;;;1.70;;
7573;SDS011;3828;48.922;9.116;2023-04-06T02:44:32;1.57;;;1.57;;
7573;SDS011;3828;48.922;9.116;2023-04-06T02:46:58;1.60;;;1.60;;
7573;SDS011;3828;48.922;9.116;2023-04-06T02:49:26;1.60;;;1.60;;
7573;SDS011;3828;48.922;9.116;2023-04-06T02:51:53;1.67;;;1.67;;
7573;SDS011;3828;48.922;9.116;2023-04-06T02:54:20;1.80;;;1.80;;
7573;SDS011;3828;48.922;9.116;2023-04-06T02:56:47;1.83;;;1.83;;
7573;SDS011;3828;48.922;9.116;2023-04-06T02:59:14;1.80;;;1.80;;
7573;SDS011;3828;48.922;9.116;2023-04-06T03:01:41;1.50;;;1.50;;
7573;SDS011;3828;48.922;9.116;2023-04-06T03:04:08;1.70;;;1.70;;
7573;SDS011;3828;48.922;9.116;2023-04-06T03:06:36;1.80;;;1.80;;
7573;SDS011;3828;48.922;9.116;2023-04-06T03:09:03;1.70;;;1.70;;
7573;SDS011;3828;48.922;9.116;2023-04-06T03:11:30;1.60;;;1.60;;
7573;SDS011;3828;48.922;9.116;2023-04-06T03:13:57;1.80;;;1.80;;
7573;SDS011;3828;48.922;9.116;2023-04-06T03:16:24;1.43;;;1.43;;
7573;SDS011;3828;48.922;9.116;2023-04-06T03:18:50;1.80;;;1.80;;
7573;SDS011;3828;48.922;9.116;2023-04-06T03:21:17;1.60;;;1.60;;
7573;SDS011;3828;48.922;9.116;2023-04-06T03:23:46;1.83;;;1.83;;
7573;SDS011;3828;48.922;9.116;2023-04-06T03:26:14;1.60;;;1.60;;
7573;SDS011;3828;48.922;9.116;2023-04-06T03:28:41;1.70;;;1.70;;
7573;SDS011;3828;48.922;9.116;2023-04-06T03:31:08;1.73;;;1.73;;
7573;SDS011;3828;48.922;9.116;2023-04-06T03:33:34;1.57;;;1.57;;
7573;SDS011;3828;48.922;9.116;2023-04-06T03:36:01;1.73;;;1.73;;
7573;SDS011;3828;48.922;9.116;2023-04-06T03:38:29;1.50;;;1.50;;
7573;SDS011;3828;48.922;9.116;2023-04-06T03:40:57;1.67;;;1.67;;
7573;SDS011;3828;48.922;9.116;2023-04-06T03:43:23;1.50;;;1.50;;
7573;SDS011;3828;48.922;9.116;2023-04-06T03:45:50;1.30;;;1.30;;
7573;SDS011;3828;48.922;9.116;2023-04-06T03:48:17;1.63;;;1.63;;
7573;SDS011;3828;48.922;9.116;2023-04-06T03:50:46;1.63;;;1.63;;
7573;SDS011;3828;48.922;9.116;2023-04-06T03:53:13;1.50;;;1.50;;
7573;SDS011;3828;48.922;9.116;2023-04-06T03:55:39;1.50;;;1.50;;
7573;SDS011;3828;48.922;9.116;2023-04-06T03:58:08;1.60;;;1.60;;
7573;SDS011;3828;48.922;9.116;2023-04-06T04:00:34;1.70;;;1.70;;
7573;SDS011;3828;48.922;9.116;2023-04-06T04:03:01;1.70;;;1.70;;
7573;SDS011;3828;48.922;9.116;2023-04-06T04:05:28;1.70;;;1.70;;
7573;SDS011;3828;48.922;9.116;2023-04-06T04:07:55;1.60;;;1.60;;
7573;SDS011;3828;48.922;9.116;2023-04-06T04:10:22;1.47;;;1.47;;
7573;SDS011;3828;48.922;9.116;2023-04-06T04:12:49;1.70;;;1.70;;
7573;SDS011;3828;48.922;9.116;2023-04-06T04:15:17;1.77;;;1.77;;
7573;SDS011;3828;48.922;9.116;2023-04-06T04:17:44;1.50;;;1.50;;
7573;SDS011;3828;48.922;9.116;2023-04-06T04:20:11;1.57;;;1.57;;
7573;SDS011;3828;48.922;9.116;2023-04-06T04:22:38;1.60;;;1.60;;
7573;SDS011;3828;48.922;9.116;2023-04-06T04:25:05;1.80;;;1.80;;
7573;SDS011;3828;48.922;9.116;2023-04-06T04:27:32;1.40;;;1.40;;
7573;SDS011;3828;48.922;9.116;2023-04-06T04:29:59;1.63;;;1.63;;
7573;SDS011;3828;48.922;9.116;2023-04-06T04:32:28;1.47;;;1.47;;
7573;SDS011;3828;48.922;9.116;2023-04-06T04:34:54;1.97;;;1.97;;
7573;SDS011;3828;48.922;9.116;2023-04-06T04:37:21;1.87;;;1.87;;
7573;SDS011;3828;48.922;9.116;2023-04-06T04:39:48;1.40;;;1.40;;
7573;SDS011;3828;48.922;9.116;2023-04-06T04:42:15;1.70;;;1.70;;
7573;SDS011;3828;48.922;9.116;2023-04-06T04:44:42;1.40;;;1.40;;
7573;SDS011;3828;48.922;9.116;2023-04-06T04:47:09;1.53;;;1.53;;
7573;SDS011;3828;48.922;9.116;2023-04-06T04:49:37;1.60;;;1.60;;
7573;SDS011;3828;48.922;9.116;2023-04-06T04:52:04;1.47;;;1.47;;
7573;SDS011;3828;48.922;9.116;2023-04-06T04:54:31;1.80;;;1.80;;
7573;SDS011;3828;48.922;9.116;2023-04-06T04:56:58;1.90;;;1.90;;
7573;SDS011;3828;48.922;9.116;2023-04-06T04:59:25;1.40;;;1.40;;
7573;SDS011;3828;48.922;9.116;2023-04-06T05:01:51;1.80;;;1.80;;
7573;SDS011;3828;48.922;9.116;2023-04-06T05:04:18;1.73;;;1.73;;
7573;SDS011;3828;48.922;9.116;2023-04-06T05:06:49;1.77;;;1.77;;
7573;SDS011;3828;48.922;9.116;2023-04-06T05:09:16;1.70;;;1.70;;
7573;SDS011;3828;48.922;9.116;2023-04-06T05:11:43;1.70;;;1.70;;
7573;SDS011;3828;48.922;9.116;2023-04-06T05:14:10;1.90;;;1.90;;
7573;SDS011;3828;48.922;9.116;2023-04-06T05:16:37;1.90;;;1.90;;
7573;SDS011;3828;48.922;9.116;2023-04-06T05:19:03;1.50;;;1.50;;
7573;SDS011;3828;48.922;9.116;2023-04-06T05:21:30;1.60;;;1.60;;
7573;SDS011;3828;48.922;9.116;2023-04-06T05:23:58;1.70;;;1.70;;
7573;SDS011;3828;48.922;9.116;2023-04-06T05:26:27;1.70;;;1.70;;
7573;SDS011;3828;48.922;9.116;2023-04-06T05:28:54;1.80;;;1.80;;
7573;SDS011;3828;48.922;9.116;2023-04-06T05:31:21;1.57;;;1.57;;
7573;SDS011;3828;48.922;9.116;2023-04-06T05:33:47;1.80;;;1.80;;
7573;SDS011;3828;48.922;9.116;2023-04-06T05:36:15;1.90;;;1.90;;
7573;SDS011;3828;48.922;9.116;2023-04-06T05:38:41;1.70;;;1.70;;
7573;SDS011;3828;48.922;9.116;2023-04-06T05:41:09;1.47;;;1.47;;
7573;SDS011;3828;48.922;9.116;2023-04-06T05:43:36;1.53;;;1.53;;
7573;SDS011;3828;48.922;9.116;2023-04-06T05:46:07;1.53;;;1.53;;
7573;SDS011;3828;48.922;9.116;2023-04-06T05:48:34;1.50;;;1.50;;
7573;SDS011;3828;48.922;9.116;2023-04-06T05:51:01;1.50;;;1.50;;
7573;SDS011;3828;48.922;9.116;2023-04-06T05:53:31;1.53;;;1.53;;
7573;SDS011;3828;48.922;9.116;2023-04-06T05:56:00;1.53;;;1.53;;
7573;SDS011;3828;48.922;9.116;2023-04-06T05:58:28;1.57;;;1.57;;
7573;SDS011;3828;48.922;9.116;2023-04-06T06:00:56;1.77;;;1.77;;
7573;SDS011;3828;48.922;9.116;2023-04-06T06:03:23;1.87;;;1.87;;
7573;SDS011;3828;48.922;9.116;2023-04-06T06:05:50;1.60;;;1.60;;
7573;SDS011;3828;48.922;9.116;2023-04-06T06:08:17;1.30;;;1.30;;
7573;SDS011;3828;48.922;9.116;2023-04-06T06:10:43;1.60;;;1.60;;
7573;SDS011;3828;48.922;9.116;2023-04-06T06:13:11;1.57;;;1.57;;
7573;SDS011;3828;48.922;9.116;2023-04-06T06:15:39;1.40;;;1.40;;
7573;SDS011;3828;48.922;9.116;2023-04-06T06:18:05;1.20;;;1.20;;
7573;SDS011;3828;48.922;9.116;2023-04-06T06:20:32;1.13;;;1.13;;
7573;SDS011;3828;48.922;9.116;2023-04-06T06:23:00;1.50;;;1.50;;
7573;SDS011;3828;48.922;9.116;2023-04-06T06:25:26;1.57;;;1.57;;
7573;SDS011;3828;48.922;9.116;2023-04-06T06:27:55;1.50;;;1.50;;
7573;SDS011;3828;48.922;9.116;2023-04-06T06:30:22;1.30;;;1.30;;
7573;SDS011;3828;48.922;9.116;2023-04-06T06:32:51;1.70;;;1.70;;
7573;SDS011;3828;48.922;9.116;2023-04-06T06:35:17;1.40;;;1.40;;
7573;SDS011;3828;48.922;9.116;2023-04-06T06:37:44;1.40;;;1.40;;
7573;SDS011;3828;48.922;9.116;2023-04-06T06:40:11;1.30;;;1.30;;
7573;SDS011;3828;48.922;9.116;2023-04-06T06:42:41;1.33;;;1.33;;
7573;SDS011;3828;48.922;9.116;2023-04-06T06:45:08;1.33;;;1.33;;
7573;SDS011;3828;48.922;9.116;2023-04-06T06:47:35;1.30;;;1.30;;
7573;SDS011;3828;48.922;9.116;2023-04-06T06:50:04;1.33;;;1.33;;
7573;SDS011;3828;48.922;9.116;2023-04-06T06:52:32;1.40;;;1.40;;
7573;SDS011;3828;48.922;9.116;2023-04-06T06:54:59;1.13;;;1.13;;
7573;SDS011;3828;48.922;9.116;2023-04-06T06:57:26;1.23;;;1.23;;
7573;SDS011;3828;48.922;9.116;2023-04-06T06:59:53;1.20;;;1.20;;
7573;SDS011;3828;48.922;9.116;2023-04-06T07:02:20;1.37;;;1.37;;
7573;SDS011;3828;48.922;9.116;2023-04-06T07:04:47;1.33;;;1.33;;
7573;SDS011;3828;48.922;9.116;2023-04-06T07:07:16;1.13;;;1.13;;
7573;SDS011;3828;48.922;9.116;2023-04-06T07:09:43;1.53;;;1.53;;
7573;SDS011;3828;48.922;9.116;2023-04-06T07:12:10;1.40;;;1.40;;
7573;SDS011;3828;48.922;9.116;2023-04-06T07:14:37;1.43;;;1.43;;
7573;SDS011;3828;48.922;9.116;2023-04-06T07:17:04;1.30;;;1.30;;
7573;SDS011;3828;48.922;9.116;2023-04-06T07:19:31;1.10;;;1.10;;
7573;SDS011;3828;48.922;9.116;2023-04-06T07:21:58;1.20;;;1.20;;
7573;SDS011;3828;48.922;9.116;2023-04-06T07:24:28;1.10;;;1.10;;
7573;SDS011;3828;48.922;9.116;2023-04-06T07:26:57;1.20;;;1.20;;
7573;SDS011;3828;48.922;9.116;2023-04-06T07:29:25;1.40;;;1.40;;
7573;SDS011;3828;48.922;9.116;2023-04-06T07:31:52;1.20;;;1.20;;
7573;SDS011;3828;48.922;9.116;2023-04-06T07:34:19;0.90;;;0.90;;
7573;SDS011;3828;48.922;9.116;2023-04-06T07:36:47;0.93;;;0.93;;
7573;SDS011;3828;48.922;9.116;2023-04-06T07:39:16;1.10;;;1.10;;
7573;SDS011;3828;48.922;9.116;2023-04-06T07:41:45;1.20;;;1.20;;
7573;SDS011;3828;48.922;9.116;2023-04-06T07:44:11;1.40;;;1.40;;
7573;SDS011;3828;48.922;9.116;2023-04-06T07:46:38;1.10;;;1.10;;
7573;SDS011;3828;48.922;9.116;2023-04-06T07:49:05;1.03;;;1.03;;
7573;SDS011;3828;48.922;9.116;2023-04-06T07:51:33;1.00;;;1.00;;
7573;SDS011;3828;48.922;9.116;2023-04-06T07:54:02;0.90;;;0.90;;
7573;SDS011;3828;48.922;9.116;2023-04-06T07:56:29;0.90;;;0.90;;
7573;SDS011;3828;48.922;9.116;2023-04-06T07:58:57;1.00;;;1.00;;
7573;SDS011;3828;48.922;9.116;2023-04-06T08:01:23;1.23;;;1.23;;
7573;SDS011;3828;48.922;9.116;2023-04-06T08:03:52;0.90;;;0.90;;
7573;SDS011;3828;48.922;9.116;2023-04-06T08:06:20;1.10;;;1.10;;
7573;SDS011;3828;48.922;9.116;2023-04-06T08:08:47;0.90;;;0.90;;
7573;SDS011;3828;48.922;9.116;2023-04-06T08:11:14;1.20;;;1.20;;
7573;SDS011;3828;48.922;9.116;2023-04-06T08:13:41;1.10;;;1.10;;
7573;SDS011;3828;48.922;9.116;2023-04-06T08:16:09;1.00;;;1.00;;
7573;SDS011;3828;48.922;9.116;2023-04-06T08:18:36;0.90;;;0.90;;
7573;SDS011;3828;48.922;9.116;2023-04-06T08:21:03;1.00;;;1.00;;
7573;SDS011;3828;48.922;9.116;2023-04-06T08:23:30;1.27;;;1.27;;
7573;SDS011;3828;48.922;9.116;2023-04-06T08:25:57;1.00;;;1.00;;
7573;SDS011;3828;48.922;9.116;2023-04-06T08:28:24;1.10;;;1.10;;
7573;SDS011;3828;48.922;9.116;2023-04-06T08:30:51;0.83;;;0.83;;
7573;SDS011;3828;48.922;9.116;2023-04-06T08:33:20;1.00;;;1.00;;
7573;SDS011;3828;48.922;9.116;2023-04-06T08:35:47;0.90;;;0.90;;
7573;SDS011;3828;48.922;9.116;2023-04-06T08:38:13;0.90;;;0.90;;
7573;SDS011;3828;48.922;9.116;2023-04-06T08:40:40;0.80;;;0.80;;
7573;SDS011;3828;48.922;9.116;2023-04-06T08:43:09;0.90;;;0.90;;
7573;SDS011;3828;48.922;9.116;2023-04-06T08:45:40;0.90;;;0.90;;
7573;SDS011;3828;48.922;9.116;2023-04-06T08:48:08;0.93;;;0.93;;
7573;SDS011;3828;48.922;9.116;2023-04-06T08:50:38;0.90;;;0.90;;
7573;SDS011;3828;48.922;9.116;2023-04-06T08:53:05;1.00;;;1.00;;
7573;SDS011;3828;48.922;9.116;2023-04-06T08:55:33;0.70;;;0.70;;
7573;SDS011;3828;48.922;9.116;2023-04-06T08:58:01;1.10;;;1.10;;
7573;SDS011;3828;48.922;9.116;2023-04-06T09:00:29;0.80;;;0.80;;
7573;SDS011;3828;48.922;9.116;2023-04-06T09:02:56;0.80;;;0.80;;
7573;SDS011;3828;48.922;9.116;2023-04-06T09:05:24;0.90;;;0.90;;
7573;SDS011;3828;48.922;9.116;2023-04-06T09:07:53;0.90;;;0.90;;
7573;SDS011;3828;48.922;9.116;2023-04-06T09:10:20;0.80;;;0.80;;
7573;SDS011;3828;48.922;9.116;2023-04-06T09:12:48;0.90;;;0.90;;
7573;SDS011;3828;48.922;9.116;2023-04-06T09:15:18;0.70;;;0.70;;
7573;SDS011;3828;48.922;9.116;2023-04-06T09:17:47;0.80;;;0.80;;
7573;SDS011;3828;48.922;9.116;2023-04-06T09:20:14;0.70;;;0.70;;
7573;SDS011;3828;48.922;9.116;2023-04-06T09:22:42;0.70;;;0.70;;
7573;SDS011;3828;48.922;9.116;2023-04-06T09:25:17;0.70;;;0.70;;
7573;SDS011;3828;48.922;9.116;2023-04-06T09:27:45;0.70;;;0.70;;
7573;SDS011;3828;48.922;9.116;2023-04-06T09:30:13;0.70;;;0.70;;
7573;SDS011;3828;48.922;9.116;2023-04-06T09:32:45;0.70;;;0.70;;
7573;SDS011;3828;48.922;9.116;2023-04-06T09:35:13;0.60;;;0.60;;
7573;SDS011;3828;48.922;9.116;2023-04-06T09:37:41;0.60;;;0.60;;
7573;SDS011;3828;48.922;9.116;2023-04-06T09:40:08;0.60;;;0.60;;
7573;SDS011;3828;48.922;9.116;2023-04-06T09:42:39;0.60;;;0.60;;
7573;SDS011;3828;48.922;9.116;2023-04-06T09:45:07;0.67;;;0.67;;
7573;SDS011;3828;48.922;9.116;2023-04-06T09:47:35;0.80;;;0.80;;
7573;SDS011;3828;48.922;9.116;2023-04-06T09:50:05;0.70;;;0.70;;
7573;SDS011;3828;48.922;9.116;2023-04-06T09:52:33;0.70;;;0.70;;
7573;SDS011;3828;48.922;9.116;2023-04-06T09:55:04;0.70;;;0.70;;
7573;SDS011;3828;48.922;9.116;2023-04-06T09:57:35;0.70;;;0.70;;
7573;SDS011;3828;48.922;9.116;2023-04-06T10:00:08;0.70;;;0.70;;
7573;SDS011;3828;48.922;9.116;2023-04-06T10:02:40;0.60;;;0.60;;
7573;SDS011;3828;48.922;9.116;2023-04-06T10:05:19;0.67;;;0.67;;
7573;SDS011;3828;48.922;9.116;2023-04-06T10:07:53;0.60;;;0.60;;
7573;SDS011;3828;48.922;9.116;2023-04-06T10:10:22;0.60;;;0.60;;
7573;SDS011;3828;48.922;9.116;2023-04-06T10:12:50;0.60;;;0.60;;
7573;SDS011;3828;48.922;9.116;2023-04-06T10:15:17;0.70;;;0.70;;
7573;SDS011;3828;48.922;9.116;2023-04-06T10:17:44;0.60;;;0.60;;
7573;SDS011;3828;48.922;9.116;2023-04-06T10:20:12;0.57;;;0.57;;
7573;SDS011;3828;48.922;9.116;2023-04-06T10:22:49;0.50;;;0.50;;
7573;SDS011;3828;48.922;9.116;2023-04-06T10:25:30;0.50;;;0.50;;
7573;SDS011;3828;48.922;9.116;2023-04-06T10:28:00;0.60;;;0.60;;
7573;SDS011;3828;48.922;9.116;2023-04-06T10:30:27;0.50;;;0.50;;
7573;SDS011;3828;48.922;9.116;2023-04-06T10:32:54;0.50;;;0.50;;
7573;SDS011;3828;48.922;9.116;2023-04-06T10:35:21;0.60;;;0.60;;
7573;SDS011;3828;48.922;9.116;2023-04-06T10:37:51;0.40;;;0.40;;
7573;SDS011;3828;48.922;9.116;2023-04-06T10:40:19;0.40;;;0.40;;
7573;SDS011;3828;48.922;9.116;2023-04-06T10:42:51;0.40;;;0.40;;
7573;SDS011;3828;48.922;9.116;2023-04-06T10:45:21;0.50;;;0.50;;
7573;SDS011;3828;48.922;9.116;2023-04-06T10:47:52;0.37;;;0.37;;
7573;SDS011;3828;48.922;9.116;2023-04-06T10:50:20;0.60;;;0.60;;
7573;SDS011;3828;48.922;9.116;2023-04-06T10:52:47;0.30;;;0.30;;
7573;SDS011;3828;48.922;9.116;2023-04-06T10:55:25;0.40;;;0.40;;
7573;SDS011;3828;48.922;9.116;2023-04-06T10:57:53;0.37;;;0.37;;
7573;SDS011;3828;48.922;9.116;2023-04-06T11:00:21;0.40;;;0.40;;
7573;SDS011;3828;48.922;9.116;2023-04-06T11:02:48;0.40;;;0.40;;
7573;SDS011;3828;48.922;9.116;2023-04-06T11:05:18;0.40;;;0.40;;
7573;SDS011;3828;48.922;9.116;2023-04-06T11:07:45;0.47;;;0.47;;
7573;SDS011;3828;48.922;9.116;2023-04-06T11:10:20;0.30;;;0.30;;
7573;SDS011;3828;48.922;9.116;2023-04-06T11:12:52;0.40;;;0.40;;
7573;SDS011;3828;48.922;9.116;2023-04-06T11:15:20;0.30;;;0.30;;
7573;SDS011;3828;48.922;9.116;2023-04-06T11:17:48;0.30;;;0.30;;
7573;SDS011;3828;48.922;9.116;2023-04-06T11:20:15;0.40;;;0.40;;
7573;SDS011;3828;48.922;9.116;2023-04-06T11:22:47;0.30;;;0.30;;
7573;SDS011;3828;48.922;9.116;2023-04-06T11:25:18;0.20;;;0.20;;
7573;SDS011;3828;48.922;9.116;2023-04-06T11:27:45;0.37;;;0.37;;
7573;SDS011;3828;48.922;9.116;2023-04-06T11:30:13;0.40;;;0.40;;
7573;SDS011;3828;48.922;9.116;2023-04-06T11:32:42;0.20;;;0.20;;
7573;SDS011;3828;48.922;9.116;2023-04-06T11:35:19;0.40;;;0.40;;
7573;SDS011;3828;48.922;9.116;2023-04-06T11:37:49;0.20;;;0.20;;
7573;SDS011;3828;48.922;9.116;2023-04-06T11:40:20;0.20;;;0.20;;
7573;SDS011;3828;48.922;9.116;2023-04-06T11:42:51;0.20;;;0.20;;
7573;SDS011;3828;48.922;9.116;2023-04-06T11:45:19;0.30;;;0.30;;
7573;SDS011;3828;48.922;9.116;2023-04-06T11:47:54;0.40;;;0.40;;
7573;SDS011;3828;48.922;9.116;2023-04-06T11:50:23;0.30;;;0.30;;
7573;SDS011;3828;48.922;9.116;2023-04-06T11:52:57;0.30;;;0.30;;
7573;SDS011;3828;48.922;9.116;2023-04-06T11:55:25;0.40;;;0.40;;
7573;SDS011;3828;48.922;9.116;2023-04-06T11:57:52;0.40;;;0.40;;
7573;SDS011;3828;48.922;9.116;2023-04-06T12:00:20;0.40;;;0.40;;
7573;SDS011;3828;48.922;9.116;2023-04-06T12:02:48;0.30;;;0.30;;
7573;SDS011;3828;48.922;9.116;2023-04-06T12:05:15;0.30;;;0.30;;
7573;SDS011;3828;48.922;9.116;2023-04-06T12:07:42;0.30;;;0.30;;
7573;SDS011;3828;48.922;9.116;2023-04-06T12:10:09;0.30;;;0.30;;
7573;SDS011;3828;48.922;9.116;2023-04-06T12:12:36;0.30;;;0.30;;
7573;SDS011;3828;48.922;9.116;2023-04-06T12:15:04;0.30;;;0.30;;
7573;SDS011;3828;48.922;9.116;2023-04-06T12:17:31;0.30;;;0.30;;
7573;SDS011;3828;48.922;9.116;2023-04-06T12:20:00;0.40;;;0.40;;
7573;SDS011;3828;48.922;9.116;2023-04-06T12:22:27;0.37;;;0.37;;
7573;SDS011;3828;48.922;9.116;2023-04-06T12:24:55;0.30;;;0.30;;
7573;SDS011;3828;48.922;9.116;2023-04-06T12:27:22;0.20;;;0.20;;
7573;SDS011;3828;48.922;9.116;2023-04-06T12:29:49;0.30;;;0.30;;
7573;SDS011;3828;48.922;9.116;2023-04-06T12:32:16;0.37;;;0.37;;
7573;SDS011;3828;48.922;9.116;2023-04-06T12:34:44;0.40;;;0.40;;
7573;SDS011;3828;48.922;9.116;2023-04-06T12:37:12;0.40;;;0.40;;
7573;SDS011;3828;48.922;9.116;2023-04-06T12:39:40;0.40;;;0.40;;
7573;SDS011;3828;48.922;9.116;2023-04-06T12:42:09;0.30;;;0.30;;
7573;SDS011;3828;48.922;9.116;2023-04-06T12:44:37;0.40;;;0.40;;
7573;SDS011;3828;48.922;9.116;2023-04-06T12:47:07;0.43;;;0.43;;
7573;SDS011;3828;48.922;9.116;2023-04-06T12:49:36;0.30;;;0.30;;
7573;SDS011;3828;48.922;9.116;2023-04-06T12:52:02;0.40;;;0.40;;
7573;SDS011;3828;48.922;9.116;2023-04-06T12:54:31;0.30;;;0.30;;
7573;SDS011;3828;48.922;9.116;2023-04-06T12:56:58;0.40;;;0.40;;
7573;SDS011;3828;48.922;9.116;2023-04-06T12:59:25;0.20;;;0.20;;
7573;SDS011;3828;48.922;9.116;2023-04-06T13:01:59;0.30;;;0.30;;
7573;SDS011;3828;48.922;9.116;2023-04-06T13:04:26;0.20;;;0.20;;
7573;SDS011;3828;48.922;9.116;2023-04-06T13:06:53;0.30;;;0.30;;
7573;SDS011;3828;48.922;9.116;2023-04-06T13:09:20;0.30;;;0.30;;
7573;SDS011;3828;48.922;9.116;2023-04-06T13:11:48;0.30;;;0.30;;
7573;SDS011;3828;48.922;9.116;2023-04-06T13:14:15;0.30;;;0.30;;
7573;SDS011;3828;48.922;9.116;2023-04-06T13:16:44;0.20;;;0.20;;
7573;SDS011;3828;48.922;9.116;2023-04-06T13:19:11;0.33;;;0.33;;
7573;SDS011;3828;48.922;9.116;2023-04-06T13:21:39;0.40;;;0.40;;
7573;SDS011;3828;48.922;9.116;2023-04-06T13:24:06;0.30;;;0.30;;
7573;SDS011;3828;48.922;9.116;2023-04-06T13:26:35;0.20;;;0.20;;
7573;SDS011;3828;48.922;9.116;2023-04-06T13:29:03;0.30;;;0.30;;
7573;SDS011;3828;48.922;9.116;2023-04-06T13:31:30;0.30;;;0.30;;
7573;SDS011;3828;48.922;9.116;2023-04-06T13:33:57;0.30;;;0.30;;
7573;SDS011;3828;48.922;9.116;2023-04-06T13:36:24;0.50;;;0.50;;
7573;SDS011;3828;48.922;9.116;2023-04-06T13:38:52;0.27;;;0.27;;
7573;SDS011;3828;48.922;9.116;2023-04-06T13:41:20;0.30;;;0.30;;
7573;SDS011;3828;48.922;9.116;2023-04-06T13:43:47;0.40;;;0.40;;
7573;SDS011;3828;48.922;9.116;2023-04-06T13:46:16;0.47;;;0.47;;
7573;SDS011;3828;48.922;9.116;2023-04-06T13:48:42;0.47;;;0.47;;
7573;SDS011;3828;48.922;9.116;2023-04-06T13:51:09;0.40;;;0.40;;
7573;SDS011;3828;48.922;9.116;2023-04-06T13:53:37;0.87;;;0.87;;
7573;SDS011;3828;48.922;9.116;2023-04-06T13:56:05;0.40;;;0.40;;
7573;SDS011;3828;48.922;9.116;2023-04-06T13:58:32;0.40;;;0.40;;
7573;SDS011;3828;48.922;9.116;2023-04-06T14:01:04;0.50;;;0.50;;
7573;SDS011;3828;48.922;9.116;2023-04-06T14:03:33;0.50;;;0.50;;
7573;SDS011;3828;48.922;9.116;2023-04-06T14:06:00;0.40;;;0.40;;
7573;SDS011;3828;48.922;9.116;2023-04-06T14:08:27;0.40;;;0.40;;
7573;SDS011;3828;48.922;9.116;2023-04-06T14:10:54;0.40;;;0.40;;
7573;SDS011;3828;48.922;9.116;2023-04-06T14:13:21;0.37;;;0.37;;
7573;SDS011;3828;48.922;9.116;2023-04-06T14:15:52;0.40;;;0.40;;
7573;SDS011;3828;48.922;9.116;2023-04-06T14:18:20;0.50;;;0.50;;
7573;SDS011;3828;48.922;9.116;2023-04-06T14:20:54;0.43;;;0.43;;
7573;SDS011;3828;48.922;9.116;2023-04-06T14:23:21;0.40;;;0.40;;
7573;SDS011;3828;48.922;9.116;2023-04-06T14:25:50;0.30;;;0.30;;
7573;SDS011;3828;48.922;9.116;2023-04-06T14:28:18;0.40;;;0.40;;
7573;SDS011;3828;48.922;9.116;2023-04-06T14:30:46;0.30;;;0.30;;
7573;SDS011;3828;48.922;9.116;2023-04-06T14:33:13;0.30;;;0.30;;
7573;SDS011;3828;48.922;9.116;2023-04-06T14:35:40;0.30;;;0.30;;
7573;SDS011;3828;48.922;9.116;2023-04-06T14:38:09;0.33;;;0.33;;
7573;SDS011;3828;48.922;9.116;2023-04-06T14:40:35;0.40;;;0.40;;
7573;SDS011;3828;48.922;9.116;2023-04-06T14:43:03;0.40;;;0.40;;
7573;SDS011;3828;48.922;9.116;2023-04-06T14:45:32;0.40;;;0.40;;
7573;SDS011;3828;48.922;9.116;2023-04-06T14:47:59;0.30;;;0.30;;
7573;SDS011;3828;48.922;9.116;2023-04-06T14:50:26;0.43;;;0.43;;
7573;SDS011;3828;48.922;9.116;2023-04-06T14:52:53;0.50;;;0.50;;
7573;SDS011;3828;48.922;9.116;2023-04-06T14:55:22;0.40;;;0.40;;
7573;SDS011;3828;48.922;9.116;2023-04-06T14:57:50;0.30;;;0.30;;
7573;SDS011;3828;48.922;9.116;2023-04-06T15:00:18;0.30;;;0.30;;
7573;SDS011;3828;48.922;9.116;2023-04-06T15:02:45;0.40;;;0.40;;
7573;SDS011;3828;48.922;9.116;2023-04-06T15:05:12;0.47;;;0.47;;
7573;SDS011;3828;48.922;9.116;2023-04-06T15:07:39;0.40;;;0.40;;
7573;SDS011;3828;48.922;9.116;2023-04-06T15:10:07;0.40;;;0.40;;
7573;SDS011;3828;48.922;9.116;2023-04-06T15:12:37;0.40;;;0.40;;
7573;SDS011;3828;48.922;9.116;2023-04-06T15:15:04;0.50;;;0.50;;
7573;SDS011;3828;48.922;9.116;2023-04-06T15:17:32;0.50;;;0.50;;